createdAt,value
2018-11-02T00:01:02.728Z,13.03
2018-11-02T00:03:38.013Z,14.03
2018-11-02T00:06:12.691Z,13.43
2018-11-02T00:08:46.825Z,13.43
2018-11-02T00:11:22.053Z,12.67
2018-11-02T00:13:56.446Z,12.57
2018-11-02T00:16:31.534Z,12.77
2018-11-02T00:19:06.696Z,13.23
2018-11-02T00:21:38.754Z,13.77
2018-11-02T00:24:10.966Z,14.17
2018-11-02T00:26:46.883Z,13.33
2018-11-02T00:29:19.793Z,13.83
2018-11-02T00:31:54.211Z,12.57
2018-11-02T00:34:28.829Z,13.03
2018-11-02T00:37:05.164Z,13.63
2018-11-02T00:39:41.246Z,13.00
2018-11-02T00:42:15.454Z,13.27
2018-11-02T00:44:49.960Z,12.37
2018-11-02T00:47:24.527Z,13.17
2018-11-02T00:49:58.947Z,13.00
2018-11-02T00:52:33.440Z,13.43
2018-11-02T00:55:09.458Z,13.57
2018-11-02T00:57:46.352Z,13.20
2018-11-02T01:00:21.551Z,12.80
2018-11-02T01:02:56.131Z,13.53
2018-11-02T01:05:30.528Z,12.37
2018-11-02T01:08:09.071Z,12.17
2018-11-02T01:10:43.260Z,12.47
2018-11-02T01:13:21.367Z,12.60
2018-11-02T01:15:59.672Z,12.53
2018-11-02T01:18:38.198Z,12.87
2018-11-02T01:21:16.294Z,12.87
2018-11-02T01:23:50.776Z,13.17
2018-11-02T01:26:26.300Z,12.87
2018-11-02T01:29:00.690Z,12.63
2018-11-02T01:31:38.968Z,13.20
2018-11-02T01:34:15.474Z,13.40
2018-11-02T01:36:50.834Z,13.90
2018-11-02T01:39:25.068Z,13.97
2018-11-02T01:42:01.476Z,14.03
2018-11-02T01:44:35.938Z,13.40
2018-11-02T01:47:08.127Z,14.73
2018-11-02T01:49:48.629Z,14.90
2018-11-02T01:52:22.852Z,14.67
2018-11-02T01:54:57.203Z,14.37
2018-11-02T01:57:33.726Z,15.50
2018-11-02T02:00:08.187Z,15.27
2018-11-02T02:02:42.469Z,16.07
2018-11-02T02:05:17.149Z,16.57
2018-11-02T02:07:52.079Z,16.23
2018-11-02T02:10:26.464Z,16.33
2018-11-02T02:13:02.325Z,16.30
2018-11-02T02:15:36.509Z,17.03
2018-11-02T02:18:11.046Z,16.07
2018-11-02T02:20:45.366Z,15.53
2018-11-02T02:23:20.781Z,16.67
2018-11-02T02:25:55.182Z,16.93
2018-11-02T02:28:29.795Z,15.57
2018-11-02T02:31:04.108Z,15.33
2018-11-02T02:33:39.065Z,15.83
2018-11-02T02:36:13.774Z,15.13
2018-11-02T02:41:22.106Z,15.93
2018-11-02T02:44:00.890Z,15.50
2018-11-02T02:46:39.626Z,14.07
2018-11-02T02:49:18.280Z,12.70
2018-11-02T02:51:54.920Z,10.20
2018-11-02T02:54:29.291Z,7.10
2018-11-02T02:57:03.625Z,6.37
2018-11-02T02:59:38.300Z,6.73
2018-11-02T03:02:18.002Z,6.30
2018-11-02T03:04:54.378Z,6.17
2018-11-02T03:07:29.981Z,6.73
2018-11-02T03:10:04.787Z,5.90
2018-11-02T03:12:39.011Z,5.70
2018-11-02T03:15:14.101Z,4.90
2018-11-02T03:17:50.238Z,4.40
2018-11-02T03:20:25.675Z,3.73
2018-11-02T03:22:59.856Z,4.10
2018-11-02T03:25:34.296Z,3.37
2018-11-02T03:28:08.658Z,3.70
2018-11-02T03:30:42.939Z,3.20
2018-11-02T03:33:17.415Z,2.97
2018-11-02T03:35:57.962Z,2.50
2018-11-02T03:38:32.161Z,2.80
2018-11-02T03:41:07.597Z,3.27
2018-11-02T03:43:42.134Z,2.70
2018-11-02T03:46:16.579Z,3.07
2018-11-02T03:48:52.975Z,2.40
2018-11-02T03:51:27.565Z,2.73
2018-11-02T03:54:02.433Z,4.17
2018-11-02T03:56:36.872Z,3.03
2018-11-02T03:59:15.383Z,2.90
2018-11-02T04:01:57.187Z,3.77
2018-11-02T04:04:38.421Z,3.30
2018-11-02T04:07:13.189Z,4.13
2018-11-02T04:09:51.389Z,3.20
2018-11-02T04:12:29.904Z,3.30
2018-11-02T04:15:04.395Z,3.27
2018-11-02T04:17:42.826Z,3.07
2018-11-02T04:20:17.119Z,3.23
2018-11-02T04:22:51.466Z,3.23
2018-11-02T04:25:27.279Z,2.33
2018-11-02T04:28:01.894Z,2.40
2018-11-02T04:30:36.565Z,2.30
2018-11-02T04:33:12.147Z,2.40
2018-11-02T04:35:46.838Z,2.63
2018-11-02T04:38:22.494Z,3.00
2018-11-02T04:41:02.643Z,3.80
2018-11-02T04:43:37.532Z,3.40
2018-11-02T04:46:11.791Z,3.37
2018-11-02T04:48:47.209Z,3.30
2018-11-02T04:51:23.035Z,3.80
2018-11-02T04:53:58.708Z,3.73
2018-11-02T04:56:33.194Z,3.50
2018-11-02T04:59:07.540Z,3.90
2018-11-02T05:01:43.197Z,3.43
2018-11-02T05:04:17.633Z,4.10
2018-11-02T05:06:51.805Z,4.20
2018-11-02T05:09:26.351Z,4.40
2018-11-02T05:12:02.474Z,3.87
2018-11-02T05:14:36.971Z,4.30
2018-11-02T05:17:12.243Z,3.90
2018-11-02T05:19:47.638Z,3.50
2018-11-02T05:22:28.477Z,3.80
2018-11-02T05:25:02.393Z,2.90
2018-11-02T05:27:40.508Z,3.23
2018-11-02T05:30:15.101Z,3.40
2018-11-02T05:32:49.390Z,3.50
2018-11-02T05:35:25.030Z,3.40
2018-11-02T05:37:59.816Z,3.50
2018-11-02T05:40:34.121Z,3.63
2018-11-02T05:43:12.331Z,3.20
2018-11-02T05:45:46.787Z,3.50
2018-11-02T05:48:21.769Z,2.93
2018-11-02T05:50:56.191Z,3.47
2018-11-02T05:53:30.723Z,4.00
2018-11-02T05:56:05.016Z,3.60
2018-11-02T05:58:39.744Z,3.90
2018-11-02T06:01:14.159Z,3.30
2018-11-02T06:03:48.742Z,2.93
2018-11-02T06:06:25.927Z,3.87
2018-11-02T06:09:02.278Z,3.97
2018-11-02T06:11:34.632Z,4.10
2018-11-02T06:14:09.133Z,5.33
2018-11-02T06:16:43.353Z,4.87
2018-11-02T06:19:17.724Z,5.23
2018-11-02T06:21:51.772Z,4.90
2018-11-02T06:24:26.180Z,5.20
2018-11-02T06:27:00.802Z,4.90
2018-11-02T06:29:36.932Z,4.63
2018-11-02T06:32:11.642Z,4.33
2018-11-02T06:34:47.855Z,4.63
2018-11-02T06:37:24.310Z,5.43
2018-11-02T06:40:02.846Z,5.27
2018-11-02T06:42:40.941Z,5.53
2018-11-02T06:45:15.619Z,5.50
2018-11-02T06:47:50.969Z,5.93
2018-11-02T06:50:27.434Z,5.33
2018-11-02T06:53:02.521Z,6.47
2018-11-02T06:55:38.551Z,6.90
2018-11-02T06:58:17.423Z,6.27
2018-11-02T07:00:53.877Z,6.67
2018-11-02T07:03:28.046Z,6.60
2018-11-02T07:06:02.507Z,6.50
2018-11-02T07:08:37.959Z,6.73
2018-11-02T07:11:20.599Z,6.97
2018-11-02T07:13:59.457Z,6.60
2018-11-02T07:16:35.612Z,7.17
2018-11-02T07:19:10.834Z,7.00
2018-11-02T07:21:49.364Z,6.20
2018-11-02T07:24:25.795Z,5.93
2018-11-02T07:27:06.264Z,5.60
2018-11-02T07:29:41.035Z,5.70
2018-11-02T07:32:19.790Z,6.30
2018-11-02T07:34:54.838Z,6.40
2018-11-02T07:37:31.056Z,5.13
2018-11-02T07:42:47.916Z,4.13
2018-11-02T07:45:22.896Z,3.80
2018-11-02T07:47:58.077Z,3.80
2018-11-02T07:50:39.540Z,3.00
2018-11-02T07:53:21.149Z,2.90
2018-11-02T07:55:55.705Z,2.40
2018-11-02T07:58:31.988Z,2.40
2018-11-02T08:01:07.003Z,2.07
2018-11-02T08:03:43.491Z,1.70
2018-11-02T08:06:17.701Z,1.80
2018-11-02T08:08:52.765Z,1.90
2018-11-02T08:11:33.238Z,1.87
2018-11-02T08:14:08.093Z,1.67
2018-11-02T08:16:44.279Z,1.80
2018-11-02T08:19:21.347Z,2.10
2018-11-02T08:22:01.891Z,2.40
2018-11-02T08:24:37.724Z,1.80
2018-11-02T08:27:16.032Z,2.20
2018-11-02T08:29:51.807Z,2.53
2018-11-02T08:32:30.070Z,2.40
2018-11-02T08:35:07.375Z,2.33
2018-11-02T08:37:42.251Z,2.33
2018-11-02T08:40:17.156Z,2.30
2018-11-02T08:42:52.300Z,2.80
2018-11-02T08:45:27.147Z,2.93
2018-11-02T08:48:02.277Z,3.50
2018-11-02T08:50:37.190Z,3.50
2018-11-02T08:53:12.156Z,4.90
2018-11-02T08:55:46.510Z,5.53
2018-11-02T08:58:21.841Z,6.27
2018-11-02T09:00:56.732Z,6.13
2018-11-02T09:03:32.119Z,6.03
2018-11-02T09:06:10.255Z,7.30
2018-11-02T09:08:48.424Z,6.63
2018-11-02T09:11:23.669Z,6.50
2018-11-02T09:13:59.561Z,7.30
2018-11-02T09:16:35.886Z,7.47
2018-11-02T09:19:09.967Z,6.90
2018-11-02T09:21:44.871Z,7.23
2018-11-02T09:24:17.720Z,6.63
2018-11-02T09:26:52.734Z,6.73
2018-11-02T09:29:27.843Z,5.23
2018-11-02T09:32:01.997Z,5.83
2018-11-02T09:34:36.329Z,4.77
2018-11-02T09:37:12.647Z,4.47
2018-11-02T09:39:46.791Z,5.17
2018-11-02T09:42:22.817Z,6.40
2018-11-02T09:44:56.896Z,5.10
2018-11-02T09:47:31.323Z,4.47
2018-11-02T09:50:06.322Z,4.73
2018-11-02T09:52:41.372Z,4.53
2018-11-02T09:55:16.193Z,4.53
2018-11-02T09:57:52.686Z,4.60
2018-11-02T10:00:24.588Z,3.50
2018-11-02T10:03:02.939Z,3.60
2018-11-02T10:05:38.987Z,3.23
2018-11-02T10:08:17.189Z,3.83
2018-11-02T10:10:51.296Z,2.70
2018-11-02T10:13:26.098Z,3.10
2018-11-02T10:16:07.342Z,3.03
2018-11-02T10:18:41.997Z,2.80
2018-11-02T10:21:14.001Z,2.83
2018-11-02T10:23:48.835Z,2.53
2018-11-02T10:26:29.412Z,2.97
2018-11-02T10:29:05.509Z,3.27
2018-11-02T10:31:40.404Z,3.47
2018-11-02T10:34:21.761Z,3.10
2018-11-02T10:36:56.670Z,3.43
2018-11-02T10:39:32.803Z,3.30
2018-11-02T10:42:08.555Z,2.97
2018-11-02T10:44:43.779Z,2.67
2018-11-02T10:47:20.196Z,2.83
2018-11-02T10:49:54.787Z,2.77
2018-11-02T10:52:32.888Z,2.47
2018-11-02T10:55:12.166Z,2.40
2018-11-02T10:57:46.533Z,2.30
2018-11-02T11:00:30.645Z,2.70
2018-11-02T11:03:06.410Z,2.43
2018-11-02T11:05:41.471Z,2.03
2018-11-02T11:08:15.840Z,1.80
2018-11-02T11:10:49.952Z,3.23
2018-11-02T11:13:22.244Z,1.93
2018-11-02T11:15:58.939Z,2.20
2018-11-02T11:18:31.236Z,2.63
2018-11-02T11:21:06.706Z,1.67
2018-11-02T11:23:41.013Z,1.70
2018-11-02T11:26:16.303Z,1.50
2018-11-02T11:28:50.395Z,2.00
2018-11-02T11:31:25.694Z,1.40
2018-11-02T11:34:01.580Z,1.47
2018-11-02T11:36:36.810Z,1.80
2018-11-02T11:39:12.266Z,1.60
2018-11-02T11:41:47.456Z,1.40
2018-11-02T11:44:21.463Z,1.53
2018-11-02T11:47:01.764Z,1.73
2018-11-02T11:49:42.010Z,1.77
2018-11-02T11:52:16.931Z,1.77
2018-11-02T11:54:52.780Z,2.07
2018-11-02T11:57:31.520Z,1.87
2018-11-02T12:00:08.458Z,1.90
2018-11-02T12:02:43.062Z,2.07
2018-11-02T12:05:22.177Z,2.00
2018-11-02T12:07:56.262Z,2.23
2018-11-02T12:10:31.270Z,1.73
2018-11-02T12:13:05.444Z,2.03
2018-11-02T12:15:40.468Z,1.80
2018-11-02T12:18:14.628Z,1.30
2018-11-02T12:20:49.034Z,1.50
2018-11-02T12:23:25.333Z,1.27
2018-11-02T12:25:59.714Z,1.60
2018-11-02T12:28:34.683Z,1.03
2018-11-02T12:31:10.258Z,1.40
2018-11-02T12:33:45.176Z,1.50
2018-11-02T12:36:16.941Z,1.63
2018-11-02T12:38:52.314Z,1.57
2018-11-02T12:41:29.856Z,1.50
2018-11-02T12:44:04.213Z,1.10
2018-11-02T12:46:40.592Z,1.00
2018-11-02T12:49:19.091Z,1.00
2018-11-02T12:52:03.526Z,1.40
2018-11-02T12:54:38.367Z,1.60
2018-11-02T12:57:14.761Z,1.07
2018-11-02T12:59:48.731Z,0.93
2018-11-02T13:02:33.463Z,1.30
2018-11-02T13:10:57.808Z,1.07
2018-11-02T13:13:48.377Z,1.20
2018-11-02T13:23:42.370Z,0.90
2018-11-02T13:44:53.280Z,1.30
2018-11-02T13:47:29.495Z,1.00
2018-11-02T13:50:05.882Z,1.50
2018-11-02T13:52:41.399Z,1.80
2018-11-02T13:55:15.874Z,1.40
2018-11-02T13:57:54.095Z,1.37
2018-11-02T14:00:29.760Z,1.17
2018-11-02T14:03:06.516Z,1.30
2018-11-02T14:05:40.927Z,1.30
2018-11-02T14:08:15.755Z,1.43
2018-11-02T14:10:50.266Z,1.00
2018-11-02T14:13:25.608Z,1.20
2018-11-02T14:16:00.333Z,0.97
2018-11-02T14:18:38.483Z,1.07
2018-11-02T14:21:12.897Z,0.80
2018-11-02T14:23:47.553Z,0.87
2018-11-02T14:26:21.781Z,1.10
2018-11-02T14:28:58.186Z,1.03
2018-11-02T14:31:32.274Z,1.10
2018-11-02T14:34:06.939Z,0.87
2018-11-02T14:36:42.251Z,0.80
2018-11-02T14:39:17.606Z,0.90
2018-11-02T14:41:51.833Z,0.90
2018-11-02T14:44:27.086Z,1.13
2018-11-02T14:47:09.238Z,1.00
2018-11-02T14:49:44.250Z,0.70
2018-11-02T14:52:18.261Z,0.77
2018-11-02T14:54:53.556Z,0.77
2018-11-02T14:57:28.486Z,0.90
2018-11-02T15:00:03.927Z,0.80
2018-11-02T15:02:41.094Z,0.80
2018-11-02T15:07:55.072Z,1.10
2018-11-02T15:10:31.473Z,0.60
2018-11-02T15:13:06.370Z,0.83
2018-11-02T15:15:40.890Z,1.50
2018-11-02T15:18:17.269Z,0.97
2018-11-02T15:20:51.957Z,0.73
2018-11-02T15:23:24.030Z,0.90
2018-11-02T15:25:59.110Z,1.00
2018-11-02T15:28:39.610Z,1.10
2018-11-02T15:31:17.774Z,0.73
2018-11-02T15:33:53.290Z,0.90
2018-11-02T15:36:28.242Z,0.80
2018-11-02T15:39:03.850Z,1.10
2018-11-02T15:41:40.243Z,0.83
2018-11-02T15:44:14.609Z,0.60
2018-11-02T15:46:49.412Z,1.00
2018-11-02T15:49:25.199Z,1.17
2018-11-02T15:51:59.383Z,1.10
2018-11-02T15:54:34.594Z,0.90
2018-11-02T15:57:10.713Z,1.03
2018-11-02T15:59:45.616Z,1.07
2018-11-02T16:02:19.917Z,1.17
2018-11-02T16:04:55.625Z,1.00
2018-11-02T16:07:30.618Z,1.40
2018-11-02T16:10:07.565Z,1.17
2018-11-02T16:12:49.227Z,1.40
2018-11-02T16:15:24.237Z,1.07
2018-11-02T16:18:02.792Z,1.43
2018-11-02T16:20:38.058Z,1.87
2018-11-02T16:23:12.613Z,1.57
2018-11-02T16:25:47.618Z,1.40
2018-11-02T16:28:24.692Z,1.77
2018-11-02T16:31:04.400Z,1.17
2018-11-02T16:33:45.549Z,2.20
2018-11-02T16:36:17.800Z,1.70
2018-11-02T16:38:55.080Z,2.10
2018-11-02T16:41:35.888Z,2.20
2018-11-02T16:44:14.785Z,2.10
2018-11-02T16:46:48.954Z,2.50
2018-11-02T16:49:27.477Z,2.03
2018-11-02T16:52:06.453Z,2.13
2018-11-02T16:54:40.959Z,2.33
2018-11-02T16:57:15.243Z,2.40
2018-11-02T16:59:49.667Z,1.67
2018-11-02T17:02:27.826Z,2.20
2018-11-02T17:05:01.881Z,2.03
2018-11-02T17:07:40.689Z,2.07
2018-11-02T17:10:15.699Z,2.70
2018-11-02T17:12:50.459Z,2.73
2018-11-02T17:15:24.779Z,2.60
2018-11-02T17:18:01.192Z,2.60
2018-11-02T17:20:36.525Z,2.60
2018-11-02T17:23:12.026Z,2.50
2018-11-02T17:25:52.637Z,2.87
2018-11-02T17:28:27.460Z,2.60
2018-11-02T17:31:02.147Z,2.80
2018-11-02T17:33:40.400Z,2.80
2018-11-02T17:36:17.246Z,2.50
2018-11-02T17:38:51.694Z,3.30
2018-11-02T17:41:27.178Z,2.40
2018-11-02T17:44:01.647Z,2.77
2018-11-02T17:46:38.012Z,2.63
2018-11-02T17:49:19.232Z,2.80
2018-11-02T17:52:00.226Z,2.53
2018-11-02T17:54:35.382Z,2.33
2018-11-02T17:57:11.181Z,2.80
2018-11-02T17:59:47.141Z,7.43
2018-11-02T18:02:27.563Z,3.10
2018-11-02T18:05:07.093Z,4.07
2018-11-02T18:07:42.547Z,4.40
2018-11-02T18:10:17.196Z,4.07
2018-11-02T18:12:56.076Z,3.10
2018-11-02T18:15:31.881Z,2.90
2018-11-02T18:18:06.616Z,2.43
2018-11-02T18:20:43.054Z,2.57
2018-11-02T18:23:17.533Z,2.70
2018-11-02T18:25:51.934Z,3.40
2018-11-02T18:28:26.383Z,2.73
2018-11-02T18:31:12.994Z,2.77
2018-11-02T18:53:34.395Z,2.83
2018-11-02T18:56:13.627Z,3.43
2018-11-02T18:59:06.049Z,4.10
2018-11-02T19:01:43.458Z,3.70
2018-11-02T19:04:32.919Z,4.73
2018-11-02T19:07:07.187Z,3.60
2018-11-02T19:09:56.830Z,3.20
2018-11-02T19:12:36.045Z,4.40
2018-11-02T19:15:18.703Z,5.13
2018-11-02T19:17:53.245Z,5.30
2018-11-02T19:20:36.528Z,4.47
2018-11-02T19:23:26.028Z,5.20
2018-11-02T19:40:50.735Z,12.20
2018-11-02T19:50:23.023Z,4.17
2018-11-02T19:58:56.844Z,4.90
2018-11-02T20:10:15.472Z,6.40
2018-11-02T20:15:57.750Z,7.47
2018-11-02T21:35:51.949Z,5.83
2018-11-02T21:38:26.932Z,5.43
2018-11-02T21:41:07.544Z,4.90
2018-11-02T21:43:45.769Z,5.50
2018-11-02T21:46:20.689Z,5.47
2018-11-02T21:48:55.578Z,5.37
2018-11-02T21:51:31.434Z,5.40
2018-11-02T21:54:06.048Z,6.07
2018-11-02T21:56:41.687Z,5.80
2018-11-02T21:59:15.999Z,6.03
2018-11-02T22:01:54.177Z,6.47
2018-11-02T22:04:41.572Z,6.37
2018-11-02T22:07:24.523Z,5.73
2018-11-02T22:10:03.727Z,5.50
2018-11-02T22:12:43.579Z,5.70
2018-11-02T22:15:24.567Z,5.30
2018-11-02T22:18:07.442Z,6.20
2018-11-02T22:20:48.229Z,6.03
2018-11-02T22:23:25.541Z,7.13
2018-11-02T22:26:06.658Z,6.33
2018-11-02T22:28:53.468Z,6.03
2018-11-02T22:31:27.886Z,6.40
2018-11-02T22:34:03.415Z,5.80
2018-11-02T22:36:37.838Z,6.30
2018-11-02T22:39:14.563Z,6.77
2018-11-02T22:41:51.024Z,6.83
2018-11-02T22:44:25.803Z,7.07
2018-11-02T22:47:04.648Z,6.97
2018-11-02T22:49:40.052Z,7.63
2018-11-02T22:52:17.031Z,6.77
2018-11-02T22:55:02.852Z,6.67
2018-11-02T22:57:43.478Z,7.17
2018-11-02T23:03:05.249Z,7.10
2018-11-02T23:05:40.236Z,6.80
2018-11-02T23:08:16.956Z,6.80
2018-11-02T23:10:57.534Z,6.87
2018-11-02T23:13:32.849Z,6.80
2018-11-02T23:16:08.665Z,6.97
2018-11-02T23:18:43.477Z,7.67
2018-11-02T23:21:26.609Z,7.13
2018-11-02T23:24:10.157Z,6.97
2018-11-02T23:27:03.594Z,8.13
2018-11-02T23:29:39.156Z,8.17
2018-11-02T23:32:15.605Z,8.47
2018-11-02T23:37:38.085Z,8.43
2018-11-02T23:40:14.752Z,9.93
2018-11-02T23:42:51.991Z,8.70
2018-11-02T23:45:28.513Z,8.17
2018-11-02T23:48:08.051Z,8.77
2018-11-02T23:50:49.386Z,8.27
2018-11-02T23:53:25.274Z,9.57
2018-11-02T23:56:02.609Z,9.90
2018-11-02T23:58:37.007Z,9.13
